Time;durP1;ratioP1;P1;durP2;ratioP2;P2;SDS_P1;SDS_P2;PMS_P1;PMS_P2;Temp;Humidity;BMP_temperature;BMP_pressure;BME280_temperature;BME280_humidity;BME280_pressure;Samples;Min_cycle;Max_cycle;Signal;HPM_P1;HPM_P2
2022/06/15 00:00:18;;;;;;;5.20;2.50;;;20.30;84.90;;;;;;5028431;28;20207;-42
2022/06/15 00:02:49;;;;;;;5.25;2.83;;;20.30;84.20;;;;;;5027336;28;20221;-42
2022/06/15 00:05:17;;;;;;;5.05;3.05;;;20.20;84.10;;;;;;5026021;28;20209;-42
2022/06/15 00:07:44;;;;;;;5.38;2.90;;;20.20;84.30;;;;;;5024746;28;20239;-42
2022/06/15 00:10:11;;;;;;;5.38;3.33;;;20.20;84.30;;;;;;5028059;28;20578;-43
2022/06/15 00:12:39;;;;;;;8.13;3.35;;;20.10;84.30;;;;;;5034315;28;20209;-43
2022/06/15 00:15:07;;;;;;;6.68;3.70;;;20.10;84.90;;;;;;5027645;28;20243;-42
2022/06/15 00:17:34;;;;;;;4.90;3.13;;;20.10;84.30;;;;;;5026444;28;20229;-43
2022/06/15 00:20:02;;;;;;;6.20;3.50;;;20.10;84.20;;;;;;5027323;28;20215;-42
2022/06/15 00:22:32;;;;;;;6.82;3.20;;;20.10;84.40;;;;;;5027993;28;20260;-42
2022/06/15 00:24:59;;;;;;;6.13;3.58;;;20.00;84.20;;;;;;5027058;28;20211;-42
2022/06/15 00:27:28;;;;;;;5.80;3.40;;;20.00;84.40;;;;;;5034248;28;20204;-42
2022/06/15 00:29:58;;;;;;;4.18;2.45;;;20.00;84.50;;;;;;5028052;28;20212;-41
2022/06/15 00:32:25;;;;;;;7.00;3.00;;;19.90;84.40;;;;;;5045747;28;20307;-42
2022/06/15 00:34:52;;;;;;;5.63;3.00;;;19.90;84.50;;;;;;5025494;28;20584;-42
2022/06/15 00:37:20;;;;;;;4.85;2.70;;;19.90;84.40;;;;;;5027551;28;20308;-41
2022/06/15 00:39:50;;;;;;;4.72;2.60;;;19.80;84.40;;;;;;5026519;28;20274;-42
2022/06/15 00:42:20;;;;;;;5.78;2.70;;;19.80;84.50;;;;;;5027119;28;20244;-42
2022/06/15 00:44:49;;;;;;;6.15;2.70;;;19.80;84.70;;;;;;5057484;28;20208;-42
2022/06/15 00:47:24;;;;;;;5.55;2.85;;;19.70;84.50;;;;;;5061472;28;20266;-42
2022/06/15 00:50:00;;;;;;;7.60;2.70;;;19.70;85.30;;;;;;5037883;28;20621;-40
2022/06/15 00:52:46;;;;;;;5.03;2.50;;;19.60;84.60;;;;;;5049517;28;20206;-39
2022/06/15 00:55:19;;;;;;;3.75;2.30;;;19.60;85.10;;;;;;5035714;28;20925;-41
2022/06/15 00:57:46;;;;;;;3.67;2.25;;;19.60;84.80;;;;;;5029887;28;20756;-43
2022/06/15 01:00:14;;;;;;;5.57;1.95;;;19.60;84.70;;;;;;5030954;28;20327;-41
2022/06/15 01:02:42;;;;;;;3.53;1.63;;;19.50;84.60;;;;;;5030632;28;20235;-42
2022/06/15 01:05:22;;;;;;;4.68;1.88;;;19.50;84.60;;;;;;5020559;28;20325;-41
2022/06/15 01:07:52;;;;;;;4.07;2.03;;;19.50;84.80;;;;;;5026900;28;20212;-43
2022/06/15 01:10:46;;;;;;;4.32;2.00;;;19.50;84.80;;;;;;5029904;28;20201;-42
2022/06/15 01:13:37;;;;;;;3.97;1.70;;;19.50;84.90;;;;;;5021300;28;20213;-43
2022/06/15 01:16:12;;;;;;;4.03;2.13;;;19.40;84.80;;;;;;5029479;28;20209;-43
2022/06/15 01:18:56;;;;;;;5.97;2.20;;;19.40;84.50;;;;;;5030627;28;20259;-42
2022/06/15 01:21:35;;;;;;;3.75;1.95;;;19.30;84.50;;;;;;5036020;28;20279;-43
2022/06/15 01:24:22;;;;;;;2.38;1.52;;;19.30;84.40;;;;;;5033495;28;20298;-41
2022/06/15 01:27:34;;;;;;;5.45;1.85;;;19.20;84.60;;;;;;5030112;28;20302;-42
2022/06/15 01:30:48;;;;;;;3.75;1.88;;;19.30;85.00;;;;;;5030312;28;20229;-42
2022/06/15 01:33:24;;;;;;;6.32;1.92;;;19.20;85.00;;;;;;5009334;28;20213;-41
2022/06/15 01:36:06;;;;;;;4.30;1.90;;;19.20;84.90;;;;;;5029035;28;20197;-42
2022/06/15 01:38:42;;;;;;;3.65;1.90;;;19.10;84.80;;;;;;5029258;28;20224;-42
2022/06/15 01:41:23;;;;;;;4.47;1.92;;;19.10;84.90;;;;;;5029128;28;20288;-43
2022/06/15 01:44:21;;;;;;;4.22;2.03;;;19.10;84.90;;;;;;5026920;28;20224;-43
2022/06/15 01:46:49;;;;;;;4.13;2.10;;;19.00;85.00;;;;;;5029905;28;20735;-41
2022/06/15 01:49:33;;;;;;;5.13;2.35;;;18.90;85.00;;;;;;5040571;28;20649;-42
2022/06/15 01:52:05;;;;;;;3.53;2.00;;;18.90;84.80;;;;;;5039855;28;20211;-41
2022/06/15 01:54:42;;;;;;;6.75;2.03;;;18.90;85.00;;;;;;5036970;28;20236;-42
2022/06/15 01:57:11;;;;;;;4.32;1.92;;;18.80;85.00;;;;;;5048060;28;20240;-41
2022/06/15 01:59:54;;;;;;;2.78;1.85;;;18.80;84.80;;;;;;5047286;28;20850;-42
2022/06/15 02:02:34;;;;;;;3.83;2.15;;;18.80;85.10;;;;;;5049045;28;20228;-43
2022/06/15 02:05:06;;;;;;;4.45;2.22;;;18.70;85.00;;;;;;5027857;28;20746;-43
2022/06/15 02:08:00;;;;;;;5.10;2.25;;;18.70;85.20;;;;;;5009311;28;20213;-42
2022/06/15 02:10:42;;;;;;;4.22;2.30;;;18.60;85.50;;;;;;5008899;28;20216;-42
2022/06/15 02:13:13;;;;;;;3.72;2.17;;;18.60;85.10;;;;;;5011450;28;20243;-40
2022/06/15 02:15:44;;;;;;;3.55;2.08;;;18.50;85.20;;;;;;5029399;28;20319;-42
2022/06/15 02:18:17;;;;;;;3.67;2.05;;;18.50;85.10;;;;;;5029738;28;20270;-41
2022/06/15 02:20:51;;;;;;;4.38;2.45;;;18.50;85.20;;;;;;5049821;28;20200;-41
2022/06/15 02:23:20;;;;;;;5.28;2.40;;;18.50;85.30;;;;;;5030731;28;20696;-42
2022/06/15 02:25:50;;;;;;;2.85;1.92;;;18.40;85.00;;;;;;5034037;28;20274;-41
2022/06/15 02:28:18;;;;;;;6.95;2.58;;;18.40;85.10;;;;;;5044807;28;20196;-42
2022/06/15 02:30:45;;;;;;;6.35;2.25;;;18.40;85.20;;;;;;5042305;28;20668;-42
2022/06/15 02:33:26;;;;;;;3.80;1.80;;;18.40;85.20;;;;;;5028506;28;20209;-40
2022/06/15 02:35:56;;;;;;;4.55;2.33;;;18.40;85.50;;;;;;5029174;28;20324;-40
2022/06/15 02:38:25;;;;;;;3.72;2.20;;;18.30;85.30;;;;;;5029320;28;20589;-41
2022/06/15 02:40:53;;;;;;;5.95;2.25;;;18.30;85.40;;;;;;5029509;28;20217;-42
2022/06/15 02:43:24;;;;;;;4.57;2.17;;;18.30;85.40;;;;;;5027528;28;20220;-42
2022/06/15 02:45:55;;;;;;;3.67;1.92;;;18.30;85.60;;;;;;5029701;28;20213;-41
2022/06/15 02:48:23;;;;;;;4.30;2.05;;;18.20;85.30;;;;;;5033717;28;20254;-43
2022/06/15 02:51:04;;;;;;;3.63;2.00;;;18.20;85.40;;;;;;5049375;28;20192;-43
2022/06/15 02:53:44;;;;;;;4.10;2.08;;;18.20;85.80;;;;;;5040071;28;20677;-42
2022/06/15 02:56:16;;;;;;;4.82;2.30;;;18.10;85.70;;;;;;5039404;28;20201;-42
2022/06/15 02:58:48;;;;;;;5.47;2.17;;;18.00;85.80;;;;;;5029994;28;20221;-43
2022/06/15 03:01:18;;;;;;;4.30;2.28;;;18.00;85.60;;;;;;5027168;28;20262;-43
2022/06/15 03:03:47;;;;;;;4.28;2.17;;;18.00;85.60;;;;;;5029760;28;20213;-43
2022/06/15 03:06:17;;;;;;;3.67;2.30;;;17.90;85.70;;;;;;5028929;28;20592;-43
2022/06/15 03:08:47;;;;;;;4.93;2.50;;;17.90;85.90;;;;;;5029257;28;20292;-42
2022/06/15 03:11:16;;;;;;;2.85;2.15;;;17.90;85.80;;;;;;5028752;28;20297;-43
2022/06/15 03:13:43;;;;;;;5.38;2.13;;;17.90;85.80;;;;;;5026947;28;20212;-42
2022/06/15 03:16:11;;;;;;;5.03;2.22;;;17.90;85.80;;;;;;5027109;28;20197;-43
2022/06/15 03:18:40;;;;;;;5.05;2.50;;;17.80;85.80;;;;;;5042472;28;20226;-43
2022/06/15 03:21:10;;;;;;;4.68;2.60;;;17.80;85.70;;;;;;5047621;28;20205;-42
2022/06/15 03:23:40;;;;;;;6.13;2.70;;;17.80;86.00;;;;;;5040762;28;20318;-43
2022/06/15 03:26:10;;;;;;;4.63;2.42;;;17.80;85.90;;;;;;5028451;28;20926;-43
2022/06/15 03:28:37;;;;;;;3.97;2.33;;;17.80;86.10;;;;;;5026266;28;20735;-43
2022/06/15 03:31:05;;;;;;;5.55;2.28;;;17.80;86.10;;;;;;5032407;28;20220;-43
2022/06/15 03:33:32;;;;;;;5.05;2.20;;;17.70;86.20;;;;;;5037989;28;20872;-42
2022/06/15 03:36:00;;;;;;;6.40;2.53;;;17.70;86.10;;;;;;5026214;28;20213;-43
2022/06/15 03:38:32;;;;;;;3.67;2.35;;;17.70;86.20;;;;;;5027608;28;20699;-42
2022/06/15 03:40:59;;;;;;;4.13;2.40;;;17.70;86.50;;;;;;5027210;28;20295;-43
2022/06/15 03:43:29;;;;;;;5.43;2.50;;;17.60;86.20;;;;;;5026511;28;20356;-44
2022/06/15 03:45:57;;;;;;;2.47;2.10;;;17.60;86.40;;;;;;5008080;28;20311;-43
2022/06/15 03:48:24;;;;;;;4.63;2.50;;;17.60;86.50;;;;;;5035611;28;20682;-43
2022/06/15 03:50:53;;;;;;;4.90;2.67;;;17.50;86.50;;;;;;5041342;28;20205;-43
2022/06/15 03:53:21;;;;;;;5.45;2.60;;;17.50;86.60;;;;;;5026488;28;20205;-42
2022/06/15 03:55:48;;;;;;;4.22;2.33;;;17.50;86.60;;;;;;5026720;28;21030;-43
2022/06/15 03:58:19;;;;;;;7.97;2.47;;;17.50;86.50;;;;;;5026949;28;20232;-43
2022/06/15 04:00:49;;;;;;;5.75;2.55;;;17.50;86.70;;;;;;5028615;28;20280;-43
2022/06/15 04:03:21;;;;;;;5.03;2.63;;;17.50;86.90;;;;;;5044694;28;20228;-43
2022/06/15 04:05:54;;;;;;;4.45;2.25;;;17.40;86.90;;;;;;5026081;28;20301;-43
2022/06/15 04:08:39;;;;;;;5.65;2.50;;;17.50;86.80;;;;;;5028018;28;20201;-44
2022/06/15 04:11:58;;;;;;;5.25;2.95;;;17.40;86.90;;;;;;5028327;28;20205;-42
2022/06/15 04:14:00;;;;;;;3.92;2.47;;;17.40;86.80;;;;;;5027057;28;20461;-43
2022/06/15 04:16:30;;;;;;;6.32;2.38;;;17.40;86.70;;;;;;5043912;28;20295;-42
2022/06/15 04:19:02;;;;;;;4.10;2.50;;;17.40;87.00;;;;;;5008842;28;20205;-42
2022/06/15 04:21:31;;;;;;;5.90;2.65;;;17.40;87.10;;;;;;5017334;28;20299;-42
2022/06/15 04:24:04;;;;;;;4.20;2.38;;;17.40;87.30;;;;;;5030493;28;20292;-42
2022/06/15 04:26:34;;;;;;;4.28;2.50;;;17.50;87.40;;;;;;5035294;28;20211;-42
2022/06/15 04:29:04;;;;;;;7.18;2.55;;;17.50;87.50;;;;;;5049804;28;20197;-42
2022/06/15 04:31:34;;;;;;;4.75;2.67;;;17.50;87.60;;;;;;5051160;28;20258;-43
2022/06/15 04:34:01;;;;;;;4.47;2.67;;;17.50;87.70;;;;;;5039385;28;20193;-43
2022/06/15 04:36:29;;;;;;;5.60;2.67;;;17.40;87.60;;;;;;5031099;28;20271;-42
2022/06/15 04:38:59;;;;;;;5.63;2.88;;;17.50;88.10;;;;;;5030292;28;20252;-43
2022/06/15 04:41:28;;;;;;;5.10;3.15;;;17.50;87.90;;;;;;5031167;28;20813;-42
2022/06/15 04:43:59;;;;;;;4.93;3.10;;;17.50;87.90;;;;;;5029134;28;20217;-42
2022/06/15 04:46:29;;;;;;;5.65;2.97;;;17.50;87.90;;;;;;5029477;28;20300;-42
2022/06/15 04:48:57;;;;;;;3.78;2.60;;;17.50;88.10;;;;;;5031440;28;20201;-41
2022/06/15 04:51:29;;;;;;;3.80;2.75;;;17.50;88.00;;;;;;5030533;28;20220;-41
2022/06/15 04:53:59;;;;;;;7.40;3.38;;;17.60;88.20;;;;;;5040376;28;20200;-42
2022/06/15 04:56:27;;;;;;;6.88;3.15;;;17.60;88.10;;;;;;5044775;28;20315;-42
2022/06/15 04:58:54;;;;;;;5.43;3.20;;;17.60;88.10;;;;;;5032033;28;20209;-42
2022/06/15 05:01:22;;;;;;;4.32;3.05;;;17.60;88.10;;;;;;5055355;28;20243;-42
2022/06/15 05:03:55;;;;;;;6.97;3.42;;;17.60;88.10;;;;;;5024030;28;20318;-42
2022/06/15 05:06:41;;;;;;;8.15;3.85;;;17.70;88.50;;;;;;5026250;28;20973;-42
2022/06/15 05:09:17;;;;;;;9.25;4.18;;;17.70;89.00;;;;;;5026516;28;20225;-42
2022/06/15 05:11:44;;;;;;;4.85;3.67;;;17.70;88.70;;;;;;5023784;28;20200;-42
2022/06/15 05:14:11;;;;;;;7.60;4.13;;;17.70;88.50;;;;;;5020926;28;20244;-42
2022/06/15 05:16:41;;;;;;;7.00;3.80;;;17.70;88.80;;;;;;5021033;28;20216;-42
2022/06/15 05:19:08;;;;;;;8.85;4.85;;;17.80;88.80;;;;;;5028317;28;20193;-42
2022/06/15 05:21:47;;;;;;;8.55;4.53;;;17.80;88.70;;;;;;5032264;28;20204;-42
2022/06/15 05:24:14;;;;;;;6.78;4.20;;;17.90;89.10;;;;;;5028673;28;20247;-42
2022/06/15 05:26:41;;;;;;;5.10;4.18;;;17.80;88.90;;;;;;5028657;28;20545;-42
2022/06/15 05:29:08;;;;;;;7.20;4.30;;;17.90;89.10;;;;;;5029202;28;20255;-42
2022/06/15 05:31:42;;;;;;;4.80;3.90;;;17.90;89.50;;;;;;5059734;28;20212;-43
2022/06/15 05:34:09;;;;;;;7.20;5.03;;;17.90;89.30;;;;;;5027011;28;20228;-42
2022/06/15 05:36:36;;;;;;;6.25;4.75;;;18.00;89.60;;;;;;5022089;28;20556;-42
2022/06/15 05:39:06;;;;;;;5.57;4.50;;;18.00;89.60;;;;;;5030052;28;20221;-42
2022/06/15 05:41:34;;;;;;;7.53;4.40;;;18.00;89.60;;;;;;5030364;28;20792;-42
2022/06/15 05:46:59;;;;;;;11.98;5.20;;;18.10;90.00;;;;;;5010370;28;20369;-43
2022/06/15 05:49:31;;;;;;;6.00;4.60;;;18.10;90.10;;;;;;5029158;28;20688;-44
2022/06/15 05:52:02;;;;;;;8.95;5.82;;;18.10;90.00;;;;;;5030203;28;20197;-44
2022/06/15 05:54:29;;;;;;;8.80;4.78;;;18.10;90.00;;;;;;5037369;28;20215;-43
2022/06/15 05:56:58;;;;;;;7.35;5.47;;;18.20;90.00;;;;;;5037896;28;20238;-43
2022/06/15 05:59:28;;;;;;;10.10;6.68;;;18.20;90.10;;;;;;5029985;28;20367;-44
2022/06/15 06:01:55;;;;;;;9.57;6.63;;;18.30;90.20;;;;;;5029592;28;20260;-43
2022/06/15 06:04:22;;;;;;;12.82;8.15;;;18.30;90.20;;;;;;5021078;28;20239;-47
2022/06/15 06:06:50;;;;;;;11.02;6.90;;;18.30;90.90;;;;;;5027194;28;20231;-44
2022/06/15 06:09:19;;;;;;;8.38;6.55;;;18.30;90.50;;;;;;5060419;28;20209;-44
2022/06/15 06:11:46;;;;;;;11.88;6.47;;;18.40;90.40;;;;;;5028079;28;20759;-44
2022/06/15 06:14:17;;;;;;;11.35;6.10;;;18.50;90.50;;;;;;5030340;28;20277;-43
2022/06/15 06:16:44;;;;;;;8.85;5.55;;;18.50;90.50;;;;;;5026697;28;20204;-45
2022/06/15 06:19:11;;;;;;;9.07;5.30;;;18.50;90.40;;;;;;5029206;28;20572;-44
2022/06/15 06:21:43;;;;;;;6.57;4.97;;;18.60;90.40;;;;;;5029092;28;20204;-44
2022/06/15 06:24:11;;;;;;;12.90;5.63;;;18.70;90.40;;;;;;5017981;28;20252;-43
2022/06/15 06:26:39;;;;;;;10.75;5.10;;;18.70;90.50;;;;;;5020387;28;20208;-45
2022/06/15 06:29:06;;;;;;;7.93;4.53;;;18.80;90.50;;;;;;5025798;28;20716;-46
2022/06/15 06:31:36;;;;;;;9.80;4.50;;;18.80;90.60;;;;;;5026835;28;20208;-45
2022/06/15 06:34:08;;;;;;;7.50;4.60;;;18.90;90.60;;;;;;5029103;28;20284;-45
2022/06/15 06:36:46;;;;;;;8.23;4.03;;;18.90;90.60;;;;;;5020033;28;20266;-45
2022/06/15 06:39:19;;;;;;;7.43;4.25;;;19.00;90.70;;;;;;5026669;28;20258;-45
2022/06/15 06:41:47;;;;;;;10.65;5.38;;;19.10;90.70;;;;;;5028225;28;20640;-46
2022/06/15 06:44:14;;;;;;;8.07;5.43;;;19.10;90.70;;;;;;5019897;28;20237;-46
2022/06/15 06:46:45;;;;;;;9.20;5.13;;;19.20;90.80;;;;;;5026025;28;20189;-45
2022/06/15 06:49:14;;;;;;;8.00;5.47;;;19.20;90.80;;;;;;5028551;28;20232;-46
2022/06/15 06:51:43;;;;;;;9.32;4.72;;;19.20;90.80;;;;;;5014335;28;20750;-46
2022/06/15 06:54:12;;;;;;;9.05;4.65;;;19.30;90.80;;;;;;5028042;28;20208;-45
2022/06/15 06:56:40;;;;;;;11.07;4.75;;;19.30;90.90;;;;;;5008250;28;20267;-46
2022/06/15 06:59:12;;;;;;;7.68;4.70;;;19.40;90.90;;;;;;5058178;28;20298;-45
2022/06/15 07:01:44;;;;;;;6.50;4.05;;;19.50;91.00;;;;;;5027043;28;20219;-46
2022/06/15 07:04:15;;;;;;;8.15;4.25;;;19.50;91.00;;;;;;5020182;28;20228;-46
2022/06/15 07:06:44;;;;;;;9.43;4.72;;;19.50;91.10;;;;;;5019881;28;20201;-46
2022/06/15 07:09:14;;;;;;;9.75;4.45;;;19.50;91.10;;;;;;5026831;28;20217;-46
2022/06/15 07:11:43;;;;;;;9.70;4.38;;;19.50;91.10;;;;;;5027413;28;20667;-44
2022/06/15 07:14:12;;;;;;;5.40;4.07;;;19.60;91.10;;;;;;5040931;28;20569;-44
2022/06/15 07:16:42;;;;;;;6.68;4.18;;;19.60;91.10;;;;;;5019052;28;20209;-44
2022/06/15 07:19:11;;;;;;;8.48;4.95;;;19.70;91.20;;;;;;5028000;28;20201;-45
2022/06/15 07:21:43;;;;;;;6.72;4.38;;;19.70;91.30;;;;;;5030390;28;20708;-44
2022/06/15 07:24:10;;;;;;;10.32;5.13;;;19.80;91.30;;;;;;5026413;28;20216;-44
2022/06/15 07:26:42;;;;;;;8.63;5.25;;;19.80;91.30;;;;;;5017297;28;20208;-43
2022/06/15 07:29:14;;;;;;;8.20;5.13;;;19.90;91.30;;;;;;5016838;28;20219;-44
2022/06/15 07:31:45;;;;;;;9.25;5.13;;;19.90;91.50;;;;;;5027380;28;20247;-44
2022/06/15 07:34:13;;;;;;;7.97;4.57;;;20.00;91.50;;;;;;5026316;28;20212;-44
2022/06/15 07:36:46;;;;;;;6.90;4.30;;;20.10;91.60;;;;;;5025626;28;20197;-45
2022/06/15 07:39:16;;;;;;;8.25;5.22;;;20.10;91.50;;;;;;5028860;28;20209;-44
2022/06/15 07:41:49;;;;;;;10.35;4.55;;;20.10;91.80;;;;;;5025207;28;20208;-44
2022/06/15 07:44:17;;;;;;;7.18;4.40;;;20.20;91.80;;;;;;5031225;28;20671;-44
2022/06/15 07:46:47;;;;;;;7.20;4.47;;;20.20;91.70;;;;;;5026112;28;20193;-44
2022/06/15 07:52:06;;;;;;;8.15;5.03;;;20.30;91.80;;;;;;5029450;28;20204;-46
2022/06/15 07:54:34;;;;;;;8.95;4.40;;;20.30;92.00;;;;;;5029856;28;20738;-45
2022/06/15 07:57:03;;;;;;;9.95;5.28;;;20.40;91.90;;;;;;5035280;28;20263;-46
2022/06/15 07:59:34;;;;;;;9.95;6.18;;;20.40;92.00;;;;;;5030082;28;20216;-46
2022/06/15 08:02:01;;;;;;;9.65;5.38;;;20.40;92.10;;;;;;5060373;28;20292;-47
2022/06/15 08:04:31;;;;;;;7.80;4.72;;;20.50;92.20;;;;;;5028098;28;20766;-44
2022/06/15 08:06:58;;;;;;;8.00;4.82;;;20.50;92.10;;;;;;5026973;28;20209;-45
2022/06/15 08:09:26;;;;;;;7.25;4.88;;;20.60;92.10;;;;;;5040153;28;20200;-46
2022/06/15 08:12:12;;;;;;;7.30;5.18;;;20.60;92.20;;;;;;5028373;28;20687;-46
2022/06/15 08:14:58;;;;;;;7.82;3.90;;;20.70;92.20;;;;;;5031770;28;20209;-47
2022/06/15 08:17:30;;;;;;;7.45;4.30;;;20.70;92.10;;;;;;5027214;28;20615;-47
2022/06/15 08:20:21;;;;;;;9.15;4.78;;;20.70;92.10;;;;;;5028188;28;20300;-46
2022/06/15 08:22:51;;;;;;;7.90;4.15;;;20.80;92.40;;;;;;5020791;28;20639;-46
2022/06/15 08:25:26;;;;;;;7.22;4.72;;;20.80;92.20;;;;;;5028969;28;20258;-47
2022/06/15 08:27:55;;;;;;;7.50;4.78;;;20.80;92.30;;;;;;5027007;28;20205;-47
2022/06/15 08:30:25;;;;;;;8.18;4.45;;;20.90;92.30;;;;;;5024675;28;20196;-48
2022/06/15 08:32:53;;;;;;;5.43;3.58;;;20.90;92.30;;;;;;5026299;28;20239;-46
2022/06/15 08:35:21;;;;;;;7.85;4.07;;;21.00;92.40;;;;;;5029645;28;20193;-46
2022/06/15 08:37:50;;;;;;;7.25;3.90;;;21.10;92.50;;;;;;5023198;28;20667;-47
2022/06/15 08:40:18;;;;;;;8.27;4.65;;;21.10;92.40;;;;;;5031911;28;20662;-47
2022/06/15 08:42:48;;;;;;;8.73;4.30;;;21.20;92.60;;;;;;5029666;28;20307;-47
2022/06/15 08:45:37;;;;;;;8.18;4.75;;;21.20;92.50;;;;;;5028112;28;20686;-47
2022/06/15 08:48:35;;;;;;;9.70;4.95;;;21.30;92.80;;;;;;5025424;28;20216;-47
2022/06/15 08:51:31;;;;;;;7.28;4.10;;;21.40;92.80;;;;;;5033130;28;20316;-46
2022/06/15 08:54:18;;;;;;;7.57;3.90;;;21.40;92.60;;;;;;5020101;28;20575;-47
2022/06/15 08:57:18;;;;;;;9.02;4.50;;;21.50;92.60;;;;;;5028474;28;20621;-47
2022/06/15 08:59:54;;;;;;;8.68;4.32;;;21.60;92.70;;;;;;5036352;28;20601;-46
2022/06/15 09:02:54;;;;;;;7.72;3.90;;;21.60;92.70;;;;;;5025490;28;20228;-47
2022/06/15 09:05:39;;;;;;;10.65;4.22;;;21.70;92.70;;;;;;5027843;28;20201;-47
2022/06/15 09:08:57;;;;;;;9.43;4.00;;;21.70;92.70;;;;;;5017596;28;20687;-47
2022/06/15 09:15:08;;;;;;;5.85;3.20;;;21.90;92.70;;;;;;5029989;28;20235;-44
2022/06/15 09:17:42;;;;;;;8.90;3.95;;;21.90;92.80;;;;;;5027222;28;20248;-43
2022/06/15 09:20:23;;;;;;;5.88;3.35;;;21.90;92.70;;;;;;5026719;28;20414;-45
2022/06/15 09:23:01;;;;;;;8.82;3.63;;;22.10;92.80;;;;;;5027825;28;20270;-43
2022/06/15 09:25:40;;;;;;;4.65;2.70;;;22.10;92.70;;;;;;5027445;28;20221;-43
2022/06/15 09:28:14;;;;;;;6.35;4.13;;;22.20;92.80;;;;;;5020467;28;20564;-43
2022/06/15 09:30:45;;;;;;;8.60;4.20;;;22.30;92.80;;;;;;5026720;28;20773;-43
2022/06/15 09:33:15;;;;;;;7.03;3.58;;;22.40;92.80;;;;;;5055864;28;20240;-43
2022/06/15 09:35:50;;;;;;;5.18;2.83;;;22.40;92.80;;;;;;5027288;28;20283;-42
2022/06/15 09:38:17;;;;;;;5.75;3.55;;;22.60;92.90;;;;;;5024373;28;20283;-40
2022/06/15 09:41:07;;;;;;;6.95;3.67;;;22.60;92.90;;;;;;5026068;28;20225;-41
2022/06/15 09:43:46;;;;;;;14.00;3.58;;;22.70;92.90;;;;;;5023805;28;20217;-41
2022/06/15 09:46:27;;;;;;;6.30;3.22;;;22.70;92.90;;;;;;5028070;28;20549;-40
2022/06/15 09:49:06;;;;;;;7.40;3.95;;;22.80;93.00;;;;;;5027750;28;20652;-43
2022/06/15 09:51:50;;;;;;;8.02;3.50;;;22.90;93.00;;;;;;5021145;28;20299;-42
2022/06/15 09:54:56;;;;;;;7.80;3.88;;;22.90;92.90;;;;;;5038085;28;20294;-41
2022/06/15 09:57:24;;;;;;;10.15;3.90;;;23.00;92.90;;;;;;5013158;28;20258;-42
2022/06/15 09:59:57;;;;;;;7.85;3.67;;;23.00;92.90;;;;;;5016692;28;20212;-44
2022/06/15 10:02:39;;;;;;;7.43;3.60;;;23.00;92.90;;;;;;5024634;28;20221;-42
2022/06/15 10:05:44;;;;;;;6.95;3.83;;;23.10;93.00;;;;;;5025014;28;20286;-44
2022/06/15 10:08:14;;;;;;;7.47;3.33;;;23.20;92.50;;;;;;5018927;28;20556;-45
2022/06/15 10:10:56;;;;;;;4.63;3.00;;;23.20;92.90;;;;;;5021292;28;20204;-44
2022/06/15 10:13:30;;;;;;;6.95;3.95;;;23.30;93.00;;;;;;5022726;28;20197;-45
2022/06/15 10:16:02;;;;;;;5.85;3.42;;;23.30;92.90;;;;;;5023062;28;20232;-45
2022/06/15 10:18:36;;;;;;;6.43;3.15;;;23.40;92.90;;;;;;5021520;28;20212;-45
2022/06/15 10:21:06;;;;;;;5.88;3.70;;;23.50;93.00;;;;;;5022692;28;20205;-45
2022/06/15 10:24:01;;;;;;;7.13;3.70;;;23.50;92.80;;;;;;5022110;28;20231;-45
2022/06/15 10:26:30;;;;;;;7.78;3.38;;;23.50;92.80;;;;;;5025048;28;20691;-46
2022/06/15 10:29:06;;;;;;;5.97;3.53;;;23.60;93.00;;;;;;5027051;28;20204;-44
2022/06/15 10:31:34;;;;;;;8.25;3.20;;;23.70;93.00;;;;;;5021600;28;20299;-45
2022/06/15 10:34:22;;;;;;;6.95;2.97;;;23.80;93.00;;;;;;5023969;28;20301;-46
2022/06/15 10:36:56;;;;;;;6.55;2.97;;;23.80;93.10;;;;;;5053914;28;20567;-44
2022/06/15 10:39:40;;;;;;;8.40;2.90;;;23.90;93.10;;;;;;5019277;28;20211;-44
2022/06/15 10:42:16;;;;;;;8.07;3.80;;;24.00;93.10;;;;;;5025018;28;20235;-44
2022/06/15 10:44:54;;;;;;;8.05;3.35;;;24.00;93.00;;;;;;5024569;28;20334;-44
2022/06/15 10:47:45;;;;;;;4.88;3.13;;;24.10;93.00;;;;;;5022956;28;20196;-45
2022/06/15 10:50:26;;;;;;;7.95;3.22;;;24.10;93.00;;;;;;5018728;28;20717;-46
2022/06/15 10:53:46;;;;;;;8.63;3.22;;;24.20;93.10;;;;;;5023938;28;20208;-45
2022/06/15 11:02:20;;;;;;;6.68;3.17;;;24.30;92.90;;;;;;5020084;28;20217;-44
2022/06/15 11:04:47;;;;;;;5.78;2.85;;;24.40;93.00;;;;;;5024179;28;20216;-44
2022/06/15 11:07:21;;;;;;;8.35;4.00;;;24.40;93.00;;;;;;5017975;28;20206;-42
2022/06/15 11:09:54;;;;;;;7.47;3.35;;;24.50;92.90;;;;;;5023127;28;20726;-43
2022/06/15 11:12:38;;;;;;;9.50;3.45;;;24.50;93.00;;;;;;5018192;28;20640;-42
2022/06/15 11:15:13;;;;;;;6.22;3.38;;;24.50;93.10;;;;;;5027988;28;20219;-44
2022/06/15 11:18:18;;;;;;;8.68;3.38;;;24.60;93.10;;;;;;5025689;28;20332;-42
2022/06/15 11:21:01;;;;;;;7.57;3.28;;;24.70;93.10;;;;;;5024708;28;20208;-41
2022/06/15 11:23:45;;;;;;;6.57;3.28;;;24.80;92.50;;;;;;5026624;28;20251;-42
2022/06/15 11:29:30;;;;;;;6.00;3.20;;;24.90;93.20;;;;;;5021897;28;20301;-43
2022/06/15 11:32:43;;;;;;;9.90;3.55;;;25.00;92.80;;;;;;5018522;28;20307;-41
2022/06/15 11:35:12;;;;;;;5.97;3.15;;;25.00;92.70;;;;;;5025732;28;20964;-42
2022/06/15 11:38:26;;;;;;;6.82;3.38;;;25.10;93.20;;;;;;5025232;28;20201;-42
2022/06/15 11:40:59;;;;;;;6.53;2.95;;;25.20;93.20;;;;;;5007730;28;20596;-40
2022/06/15 11:43:33;;;;;;;9.38;4.13;;;25.20;93.30;;;;;;4981965;28;20629;-38
2022/06/15 11:46:33;;;;;;;6.78;3.65;;;25.30;93.20;;;;;;5006731;28;20757;-40
2022/06/15 11:49:06;;;;;;;5.82;3.45;;;25.40;93.00;;;;;;5026369;28;20735;-41
2022/06/15 11:52:06;;;;;;;7.05;3.05;;;25.40;92.90;;;;;;5026699;28;20197;-41
2022/06/15 11:54:51;;;;;;;5.38;3.00;;;25.40;93.10;;;;;;5021293;28;20224;-41
2022/06/15 11:57:19;;;;;;;7.07;3.28;;;25.50;93.20;;;;;;5020281;28;20319;-42
2022/06/15 11:59:54;;;;;;;6.78;3.47;;;25.50;93.10;;;;;;5031716;28;20192;-42
2022/06/15 12:03:07;;;;;;;8.15;3.22;;;25.60;93.00;;;;;;5024636;28;20208;-42
2022/06/15 12:05:59;;;;;;;6.15;3.20;;;25.60;92.80;;;;;;5021341;28;20327;-40
2022/06/15 12:08:37;;;;;;;10.48;3.30;;;25.70;93.10;;;;;;5022775;28;20299;-43
2022/06/15 12:14:19;;;;;;;6.97;2.97;;;25.80;93.30;;;;;;5021240;28;20319;-41
2022/06/15 12:16:58;;;;;;;4.13;2.50;;;25.90;93.30;;;;;;5026697;28;20549;-40
2022/06/15 12:19:51;;;;;;;4.13;2.28;;;25.90;93.30;;;;;;5024253;28;20298;-42
2022/06/15 12:22:35;;;;;;;6.45;2.95;;;26.00;93.50;;;;;;5019307;28;20805;-41
2022/06/15 12:25:15;;;;;;;5.28;2.53;;;26.10;93.30;;;;;;5019723;28;20235;-40
2022/06/15 12:27:51;;;;;;;7.43;3.05;;;26.20;93.50;;;;;;5014867;28;20212;-40
2022/06/15 12:30:32;;;;;;;4.32;2.60;;;26.20;92.90;;;;;;5010344;28;20207;-39
2022/06/15 12:33:22;;;;;;;6.80;3.47;;;26.30;93.10;;;;;;5010997;28;20209;-41
2022/06/15 12:36:10;;;;;;;5.80;2.92;;;26.30;92.60;;;;;;5024420;28;20255;-40
2022/06/15 12:38:59;;;;;;;6.68;3.30;;;26.30;92.90;;;;;;5023865;28;20216;-41
2022/06/15 12:44:37;;;;;;;7.07;3.00;;;26.40;93.10;;;;;;5026501;28;20687;-41
2022/06/15 12:47:13;;;;;;;5.55;3.10;;;26.40;92.90;;;;;;5028428;28;20215;-40
2022/06/15 12:50:05;;;;;;;9.30;3.10;;;26.50;92.80;;;;;;5022570;28;20220;-44
2022/06/15 12:52:32;;;;;;;7.20;2.70;;;26.50;92.90;;;;;;5027471;28;20252;-43
2022/06/15 12:55:10;;;;;;;5.45;2.55;;;26.60;93.00;;;;;;5027455;28;20200;-43
2022/06/15 12:58:09;;;;;;;7.03;3.15;;;26.60;93.10;;;;;;5027464;28;20335;-43
2022/06/15 13:00:59;;;;;;;6.53;2.80;;;26.70;93.00;;;;;;5024292;28;20205;-44
2022/06/15 13:03:51;;;;;;;8.27;3.40;;;26.70;92.40;;;;;;5028369;28;20312;-43
2022/06/15 13:06:29;;;;;;;6.05;2.72;;;26.80;92.40;;;;;;5026218;28;20201;-44
2022/06/15 13:09:14;;;;;;;3.70;2.33;;;26.80;92.70;;;;;;5016181;28;20229;-44
2022/06/15 13:12:05;;;;;;;4.43;2.40;;;26.80;92.50;;;;;;5022141;28;20205;-43
2022/06/15 13:14:46;;;;;;;5.00;2.63;;;26.90;92.70;;;;;;5030046;28;20292;-43
2022/06/15 13:17:16;;;;;;;5.47;2.10;;;26.90;92.50;;;;;;5024852;28;20219;-43
2022/06/15 13:19:59;;;;;;;5.30;2.38;;;26.90;93.20;;;;;;5023247;28;20770;-43
2022/06/15 13:22:32;;;;;;;5.68;2.70;;;27.00;92.20;;;;;;5025340;28;20197;-44
2022/06/15 13:25:07;;;;;;;4.90;2.70;;;27.00;91.90;;;;;;5018221;28;20741;-43
2022/06/15 13:27:41;;;;;;;4.65;2.40;;;27.00;92.10;;;;;;5026925;28;20201;-42
2022/06/15 13:30:20;;;;;;;4.95;2.42;;;27.00;92.40;;;;;;5028372;28;20255;-42
2022/06/15 13:33:09;;;;;;;3.38;2.25;;;27.10;92.40;;;;;;5018636;28;20654;-36
2022/06/15 13:35:41;;;;;;;4.65;2.40;;;27.10;92.60;;;;;;5019813;28;20228;-36
2022/06/15 13:38:31;;;;;;;5.03;2.65;;;27.20;92.50;;;;;;5010573;28;20205;-37
2022/06/15 13:40:59;;;;;;;5.35;2.85;;;27.20;92.50;;;;;;5024908;28;20267;-36
2022/06/15 13:43:28;;;;;;;5.05;2.33;;;27.30;92.50;;;;;;5028231;28;20233;-34
2022/06/15 13:46:00;;;;;;;4.60;2.75;;;27.30;92.40;;;;;;5020102;28;20307;-37
2022/06/15 13:48:42;;;;;;;6.40;2.70;;;27.40;92.30;;;;;;5022273;28;20204;-37
2022/06/15 13:51:19;;;;;;;3.10;2.20;;;27.40;92.40;;;;;;5024821;28;20327;-37